• Join FlightAware (Why Join?)
  • Login
  • US Flag 
09:14PM EDT


 

Airport Tracker/Info


-or-


 

Live Flight TrackerFlight Track Log ✈ N30VP ✈ 27-Oct-2013 ✈ KOKV - KAPF

Flight Track Log - Related Links

Times and Time Zones

All times are in EDT time to prevent confusion due to time zone crossing. See the N30VP flight status page for this flight to view local times or setup timezone preferences in your user account.

Time Position Orientation Groundspeed Altitude Reporting Facility
EDT Latitude Longitude Course Direction KTS MPH feet Rate Location/Type
05:45AM 39.1167 -78.2000 238° Southwest 245 282 4,000  Level Potomac TRACON
05:46AM 39.1000 -78.1333 108° East 256 295 6,800 3,060 Climbing Potomac TRACON
05:47AM 39.0500 -78.0500 128° Southeast 295 339 10,200 3,240 Climbing Potomac TRACON
05:48AM 38.9667 -77.9833 148° Southeast 320 368 13,700 3,060 Climbing Potomac TRACON
05:49AM 38.8817 -77.9703 173° South 328 377 16,600 2,400 Climbing Washington Center
05:50AM 38.5404 -78.3404 238° Southwest  Level Estimated
05:50AM 38.7894 -77.9886 189° South 338 389 18,800  Level Washington Center
05:51AM 38.7014 -78.0097 191° South 355 409 21,300 2,640 Climbing Washington Center
05:52AM 38.6072 -78.0306 190° South 355 409 24,100 2,400 Climbing Washington Center
05:53AM 38.5208 -78.0808 204° Southwest 344 396 26,300 1,800 Climbing Washington Center
05:54AM 38.4361 -78.1336 206° Southwest 344 396 27,900 1,560 Climbing Washington Center
05:55AM 38.3475 -78.1889 206° Southwest 344 396 29,500 1,620 Climbing Washington Center
05:56AM 38.2564 -78.2467 206° Southwest 355 409 31,100 1,620 Climbing Washington Center
05:57AM 38.1572 -78.3089 206° Southwest 360 414 32,700 1,500 Climbing Washington Center
05:58AM 38.0703 -78.3614 205° Southwest 370 426 34,200 1,440 Climbing Washington Center
05:59AM 37.9836 -78.4133 205° Southwest 364 419 35,600 1,560 Climbing Washington Center
06:00AM 37.8947 -78.4681 206° Southwest 364 419 37,300 1,140 Climbing Washington Center
06:01AM 37.8081 -78.5197 205° Southwest 359 413 38,000 300 Climbing Washington Center
06:02AM 37.7169 -78.5742 205° Southwest 359 413 38,000  Level Washington Center
06:03AM 37.6089 -78.6406 206° Southwest 376 433 38,000  Level Washington Center
06:04AM 37.5072 -78.7019 206° Southwest 395 455 38,000  Level Washington Center
06:05AM 37.4033 -78.7631 205° Southwest 407 468 38,000  Level Washington Center
06:06AM 37.2975 -78.8267 206° Southwest 412 474 38,000  Level Washington Center
06:07AM 37.1936 -78.8900 206° Southwest 412 474 38,000  Level Washington Center
06:08AM 37.0958 -78.9458 204° Southwest 417 480 38,000  Level Washington Center
06:09AM 36.9942 -79.0089 206° Southwest 417 480 38,000  Level Washington Center
06:10AM 36.8900 -79.0692 205° Southwest 412 474 38,000  Level Washington Center
06:11AM 36.8053 -79.1172 204° Southwest 412 474 38,000  Level Washington Center
06:12AM 36.6842 -79.1919 206° Southwest 412 474 38,000  Level Washington Center
06:13AM 36.5672 -79.2617 206° Southwest 412 474 38,000  Level Washington Center
06:14AM 36.4633 -79.3189 204° Southwest 412 474 38,000  Level Washington Center
06:15AM 36.3739 -79.3764 207° Southwest 412 474 38,000  Level Washington Center
06:16AM 36.2717 -79.4358 205° Southwest 412 474 38,000  Level Washington Center
06:18AM 36.0822 -79.5425 204° Southwest 415 478 38,000  Level Atlanta Center
06:19AM 35.9800 -79.5994 204° Southwest 410 472 38,000  Level Atlanta Center
06:20AM 35.8758 -79.6592 205° Southwest 415 478 38,000  Level Atlanta Center
06:21AM 35.7756 -79.7156 205° Southwest 415 478 38,000  Level Atlanta Center
06:22AM 35.6858 -79.7717 207° Southwest 415 478 38,000  Level Atlanta Center
06:23AM 35.5733 -79.8411 207° Southwest 415 478 38,000  Level Atlanta Center
06:24AM 35.4733 -79.9000 206° Southwest 410 472 38,000  Level Atlanta Center
06:25AM 35.3686 -79.9561 204° Southwest 410 472 38,000  Level Atlanta Center
06:27AM 35.1814 -80.0611 205° Southwest 392 451 38,000  Level Jacksonville Center
06:28AM 35.0783 -80.1153 203° Southwest 398 458 38,000  Level Jacksonville Center
06:29AM 34.9692 -80.1794 206° Southwest 403 464 38,000  Level Jacksonville Center
06:30AM 34.8683 -80.2358 205° Southwest 398 458 38,000  Level Jacksonville Center
06:31AM 34.7733 -80.2894 205° Southwest 393 452 38,000  Level Jacksonville Center
06:32AM 34.6725 -80.3481 206° Southwest 393 452 38,000  Level Jacksonville Center
06:33AM 34.5733 -80.4064 206° Southwest 393 452 38,000  Level Jacksonville Center
06:34AM 34.4722 -80.4597 204° Southwest 398 458 38,000  Level Jacksonville Center
06:35AM 34.3753 -80.5153 205° Southwest 398 458 38,000  Level Jacksonville Center
06:36AM 34.2739 -80.5683 203° Southwest 398 458 38,000  Level Jacksonville Center
06:37AM 34.1750 -80.6261 206° Southwest 398 458 38,000  Level Jacksonville Center
06:38AM 34.0717 -80.6839 205° Southwest 398 458 38,000  Level Jacksonville Center
06:39AM 33.9683 -80.7417 205° Southwest 398 458 38,000  Level Jacksonville Center
06:40AM 33.8628 -80.7967 203° Southwest 398 458 38,000  Level Jacksonville Center
06:41AM 33.7614 -80.8517 204° Southwest 403 464 38,000  Level Jacksonville Center
06:42AM 33.6600 -80.9064 204° Southwest 403 464 38,000  Level Jacksonville Center
06:43AM 33.5608 -80.9608 205° Southwest 397 457 38,000  Level Jacksonville Center
06:44AM 33.4717 -81.0103 205° Southwest 397 457 38,000  Level Jacksonville Center
06:45AM 33.3722 -81.0619 203° Southwest 397 457 38,000  Level Jacksonville Center
06:46AM 33.2750 -81.1136 204° Southwest 397 457 38,000  Level Jacksonville Center
06:47AM 33.1778 -81.1678 205° Southwest 397 457 38,000  Level Jacksonville Center
06:48AM 33.0822 -81.2192 204° Southwest 392 451 38,000  Level Jacksonville Center
06:49AM 32.9850 -81.2706 204° Southwest 392 451 38,000  Level Jacksonville Center
06:50AM 32.8875 -81.3192 203° Southwest 387 445 38,000  Level Jacksonville Center
06:51AM 32.7919 -81.3728 205° Southwest 387 445 38,000 -60 Level Jacksonville Center
06:52AM 32.6944 -81.4214 203° Southwest 381 438 37,900  Descending Jacksonville Center
06:53AM 32.6011 -81.4772 207° Southwest 381 438 38,000  Climbing Jacksonville Center
06:54AM 32.4953 -81.5331 204° Southwest 381 438 38,000  Level Jacksonville Center
06:55AM 32.4081 -81.5786 204° Southwest 381 438 38,000  Level Jacksonville Center
06:56AM 32.3044 -81.6317 203° Southwest 376 433 38,000  Level Jacksonville Center
06:57AM 32.2108 -81.6797 203° Southwest 376 433 38,000  Level Jacksonville Center
06:58AM 32.1278 -81.7225 204° Southwest 376 433 38,000  Level Jacksonville Center
06:59AM 32.0258 -81.7753 204° Southwest 371 427 38,000  Level Jacksonville Center
07:00AM 31.9406 -81.8203 204° Southwest 371 427 38,000  Level Jacksonville Center
07:01AM 31.8408 -81.8678 202° Southwest 371 427 38,000  Level Jacksonville Center
07:02AM 31.7472 -81.9178 204° Southwest 365 420 38,000  Level Jacksonville Center
07:03AM 31.6661 -81.9603 204° Southwest 365 420 38,000  Level Jacksonville Center
07:04AM 31.5683 -82.0122 204° Southwest 357 411 38,000  Level Jacksonville Center
07:05AM 31.4872 -82.0544 204° Southwest 357 411 38,000  Level Jacksonville Center
07:06AM 31.3958 -82.1017 204° Southwest 357 411 38,000  Level Jacksonville Center
07:07AM 31.3019 -82.1389 199° South 357 411 38,000  Level Jacksonville Center
07:08AM 31.1978 -82.1567 188° South 366 421 38,000  Level Jacksonville Center
07:09AM 31.0933 -82.1694 186° South 378 435 38,000  Level Jacksonville Center
07:10AM 30.9911 -82.1825 186° South 383 441 38,000  Level Jacksonville Center
07:11AM 30.8742 -82.1956 185° South 383 441 38,000  Level Jacksonville Center
07:12AM 30.7806 -82.2131 189° South 388 447 38,000  Level Jacksonville Center
07:13AM 30.6636 -82.2308 187° South 388 447 38,000  Level Jacksonville Center
07:14AM 30.5592 -82.2436 186° South 388 447 38,000  Level Jacksonville Center
07:15AM 30.4569 -82.2539 185° South 388 447 38,000  Level Jacksonville Center
07:16AM 30.3528 -82.2692 187° South 388 447 38,000  Level Jacksonville Center
07:17AM 30.2442 -82.2603 176° South 388 447 38,000  Level Jacksonville Center
07:18AM 30.1331 -82.2153 161° South 399 459 38,000  Level Jacksonville Center
07:19AM 30.0203 -82.1872 168° South 410 472 38,000  Level Jacksonville Center
07:20AM 29.9094 -82.1642 170° South 410 472 38,000  Level Jacksonville Center
07:21AM 29.7986 -82.1364 168° South 410 472 38,000  Level Jacksonville Center
07:22AM 29.6858 -82.1014 165° South 415 478 38,000  Level Jacksonville Center
07:23AM 29.5728 -82.0736 168° South 415 478 38,000  Level Jacksonville Center
07:24AM 29.4642 -82.0433 166° South 415 478 38,000  Level Jacksonville Center
07:25AM 29.3492 -82.0183 169° South 415 478 38,000  Level Jacksonville Center
07:26AM 29.2383 -81.9906 168° South 415 478 38,000 -420 Level Jacksonville Center
07:27AM 29.0556 -81.9389 166° South 420 483 37,000 -1,260 Descending Miami Center
07:28AM 28.9397 -81.9100 168° South 420 483 34,700 -2,400 Descending Miami Center
07:29AM 28.8200 -81.8783 167° South 414 476 32,300 -2,400 Descending Miami Center
07:30AM 28.7019 -81.8494 168° South 419 482 30,000 -2,340 Descending Miami Center
07:31AM 28.5822 -81.8181 167° South 426 490 27,700 -1,500 Descending Miami Center
07:32AM 28.4644 -81.7844 166° South 438 504 27,000 -360 Descending Miami Center
07:33AM 28.3464 -81.7581 169° South 438 504 27,000 -180 Level Miami Center
07:34AM 28.2200 -81.7314 169° South 452 520 26,700 -660 Descending Miami Center
07:35AM 28.0997 -81.7075 170° South 452 520 25,700 -1,020 Descending Miami Center
07:36AM 27.9778 -81.6811 169° South 447 514 24,700 -1,020 Descending Miami Center
07:37AM 27.8575 -81.6572 170° South 447 514 23,700 -1,440 Descending Miami Center
07:38AM 27.7433 -81.6336 170° South 440 506 21,900 -1,860 Descending Miami Center
07:39AM 27.6314 -81.6100 169° South 420 483 20,000 -1,920 Descending Miami Center
07:40AM 27.5236 -81.5892 170° South 408 470 18,100 -1,860 Descending Miami Center
07:41AM 27.4158 -81.5661 169° South 403 464 16,300 -1,800 Descending Miami Center
07:42AM 27.3183 -81.5481 171° South 391 450 14,600 -1,740 Descending Miami Center
07:43AM 27.2147 -81.5275 170° South 383 441 12,900 -1,800 Descending Miami Center
07:44AM 27.1131 -81.5072 170° South 378 435 11,100 -1,500 Descending Miami Center
07:45AM 27.0156 -81.4892 171° South 366 421 10,000 -600 Descending Miami Center
07:46AM 26.9186 -81.5156 194° South 355 409 10,000  Level Miami Center
07:47AM 26.8278 -81.5469 197° South 345 397 10,000 -60 Level Miami Center
07:48AM 26.7392 -81.5758 196° South 344 396 9,900 -600 Descending Miami Center
07:49AM 26.6633 -81.6008 196° South 314 361 8,900 -1,020 Descending Miami Center
07:50AM 26.5872 -81.6281 198° South 292 336 7,900 -960 Descending Miami Center
07:51AM 26.5217 -81.6531 199° South 286 329 7,000 -900 Descending Miami Center